Airfield :
LOGIN :

Register | Disclaimer

   EN    FR    IT 

 










Legend :    VFR   Marginal VFR   IFR   Intensive IFR   Very Intensive IFR
Visi :
Ceiling :
>= 8 km
>= 3000ft
5 to 8 km
1000 to 3000 ft
1500m to 5 km
500 to 1000 ft
800 to 1500m
200 to 500 ft
< 800m
< 200 ft
Symbols :   Thunderstorms  Fog  Heavy snow  Heavy precipitations  Wind > 20 kt
SIGMETs :     Misc.  Thunderstorms  Icing  Turbulence  Mountain Waves  Volcanic Ashes






- Airport Elevation : 443 ft
- IATA code : SQQ


EYSA - Siauliai

CURRENT METAR :
  • 291350Z 17008KT 9999 FEW020 BKN120 04/00 Q1003 R14L/19//95 R14R/19//95 BLU TEMPO SCT016 BKN030 WHT

EXPIRED METARs :
  • 291320Z 18009KT 9999 SCT018 BKN032 04/M00 Q1004 R14L/19//95 R14R/19//95 WHT TEMPO FEW016 BKN026 BLU
  • 291250Z 18010KT 9999 SCT014 BKN022 BKN033 03/M00 Q1004 R14L/19//95 R14R/19//95 GRN TEMPO SCT016 BKN019 WHT
  • 291220Z 19010KT 9999 FEW016 BKN019 OVC024 03/00 Q1004 R14L/19//95 R14R/19//95 WHT TEMPO SCT014 BKN019 GRN
  • 291150Z 20009KT 160V220 9999 FEW014 BKN016 BKN020 03/00 Q1004 R14L/19//95 R14R/19//95 WHT TEMPO SCT014 BKN019 GRN
  • 291120Z 20009KT 180V240 9999 BKN016 03/M00 Q1005 R14L/19//95 R14R/19//95 WHT NOSIG

TAF TAF EYSA
Valid from the 29 at 12:00 until the 29 at 21:00 UTC


291100Z 2912/2921 19012KT 9000 BKN020



MET'MAP, your aeronautical weather chart ! - Copyright ORBIFLY December 2007 - Disclaimer

ORBIFLY MET'MAP TEAM :

Programming & Development : Alexandra Zaïnal
Concept & original design : Baudouin d'Aumeries
Assistance for programming : Marc-Olivier Méhu
Technical & hardware support : Manuel Goepfert

Contact : metmap@orbifly.com




SOURCES & CREDITS :

   NOAA